createdAt,value
2022-08-04T00:04:38.787Z,17.47
2022-08-04T00:15:37.061Z,17.27
2022-08-04T00:26:38.709Z,17.28
2022-08-04T00:37:40.265Z,17.08
2022-08-04T00:48:38.858Z,16.98
2022-08-04T00:59:40.635Z,16.98
2022-08-04T01:10:42.648Z,16.78
2022-08-04T01:21:38.318Z,16.69
2022-08-04T01:32:26.092Z,16.69
2022-08-04T01:43:27.935Z,16.59
2022-08-04T01:54:30.058Z,16.49
2022-08-04T02:06:02.504Z,16.49
2022-08-04T02:16:27.060Z,16.39
2022-08-04T02:27:06.930Z,16.20
2022-08-04T02:38:08.089Z,16.10
2022-08-04T02:49:08.693Z,16.00
2022-08-04T03:00:10.106Z,15.90
2022-08-04T03:11:11.884Z,15.91
2022-08-04T03:22:11.615Z,15.81
2022-08-04T03:33:13.407Z,15.71
2022-08-04T03:44:12.424Z,15.61
2022-08-04T03:55:12.815Z,15.61
2022-08-04T04:06:11.566Z,15.51
2022-08-04T04:17:13.902Z,15.61
2022-08-04T04:28:44.712Z,15.71
2022-08-04T04:39:09.336Z,15.90
2022-08-04T04:50:09.149Z,16.20
2022-08-04T05:01:07.374Z,16.49
2022-08-04T05:12:59.187Z,16.69
2022-08-04T05:23:10.632Z,17.27
2022-08-04T05:34:09.216Z,17.27
2022-08-04T05:45:06.561Z,17.67
2022-08-04T05:56:08.866Z,17.96
2022-08-04T06:07:11.494Z,18.74
2022-08-04T06:19:56.951Z,19.43
2022-08-04T06:29:15.962Z,19.72
2022-08-04T06:40:30.713Z,20.60
2022-08-04T06:51:24.572Z,21.09
2022-08-04T07:02:24.760Z,21.68
2022-08-04T07:13:26.353Z,22.26
2022-08-04T07:24:23.401Z,22.65
2022-08-04T07:36:05.199Z,23.44
2022-08-04T07:46:31.674Z,23.73
2022-08-04T07:57:41.681Z,24.32
2022-08-04T08:08:35.806Z,25.00
2022-08-04T08:19:37.307Z,25.10
2022-08-04T08:30:38.792Z,25.59
2022-08-04T08:41:40.069Z,25.78
2022-08-04T08:52:57.288Z,26.17
2022-08-04T09:03:38.993Z,26.27
2022-08-04T09:14:38.112Z,26.76
2022-08-04T09:25:27.155Z,27.05
2022-08-04T09:36:14.390Z,27.45
2022-08-04T09:47:18.942Z,27.44
2022-08-04T09:58:17.980Z,27.84
2022-08-04T10:09:15.488Z,28.33
2022-08-04T10:20:15.840Z,28.52
2022-08-04T10:31:20.394Z,29.01
2022-08-04T10:42:21.424Z,29.60
2022-08-04T10:53:20.243Z,30.18
2022-08-04T11:04:27.583Z,30.57
2022-08-04T11:15:23.002Z,31.06
2022-08-04T11:26:24.736Z,31.75
2022-08-04T11:37:24.725Z,33.02
2022-08-04T11:48:23.296Z,38.30
2022-08-04T11:59:19.489Z,37.81
2022-08-04T12:10:17.225Z,39.96
2022-08-04T12:21:15.912Z,39.57
2022-08-04T12:32:09.753Z,41.33
2022-08-04T12:43:09.310Z,41.63
2022-08-04T12:54:05.467Z,42.11
2022-08-04T13:05:06.577Z,41.92
2022-08-04T13:16:05.340Z,42.41
2022-08-04T13:27:07.518Z,42.99
2022-08-04T13:38:09.403Z,41.63
2022-08-04T13:49:42.790Z,41.63
2022-08-04T14:00:12.428Z,45.24
2022-08-04T14:11:07.730Z,43.78
2022-08-04T14:22:02.223Z,42.80
2022-08-04T14:34:02.537Z,44.95
2022-08-04T14:43:59.581Z,44.85
2022-08-04T14:54:59.843Z,43.48
2022-08-04T15:06:10.864Z,43.29
2022-08-04T15:17:09.859Z,38.69
2022-08-04T15:27:59.878Z,34.00
2022-08-04T15:38:56.278Z,32.53
2022-08-04T15:49:43.177Z,31.94
2022-08-04T16:00:39.515Z,31.55
2022-08-04T16:11:38.019Z,30.28
2022-08-04T16:22:39.461Z,30.48
2022-08-04T16:33:43.794Z,30.18
2022-08-04T16:44:53.081Z,29.79
2022-08-04T16:55:46.613Z,28.91
2022-08-04T17:06:46.930Z,28.23
2022-08-04T17:18:05.492Z,28.52
2022-08-04T17:28:47.726Z,27.64
2022-08-04T17:39:46.296Z,27.15
2022-08-04T17:50:43.430Z,26.76
2022-08-04T18:01:38.464Z,26.37
2022-08-04T18:12:42.421Z,25.78
2022-08-04T18:23:50.712Z,25.39
2022-08-04T18:34:55.076Z,24.90
2022-08-04T18:45:51.289Z,24.51
2022-08-04T19:08:02.145Z,23.73
2022-08-04T19:18:56.020Z,23.44
2022-08-04T19:29:57.017Z,23.04
2022-08-04T19:40:57.570Z,22.75
2022-08-04T19:51:56.631Z,22.46
2022-08-04T20:02:48.250Z,22.16
2022-08-04T20:13:54.627Z,21.87
2022-08-04T20:25:00.450Z,21.68
2022-08-04T20:36:05.083Z,21.38
2022-08-04T20:46:46.246Z,21.28
2022-08-04T20:57:50.645Z,21.09
2022-08-04T21:08:57.340Z,20.99
2022-08-04T21:19:56.651Z,20.80
2022-08-04T21:30:56.461Z,20.70
2022-08-04T21:42:27.985Z,20.50
2022-08-04T21:52:55.241Z,20.40
2022-08-04T22:03:57.013Z,20.31
2022-08-04T22:14:59.732Z,20.11
2022-08-04T22:25:59.151Z,19.92
2022-08-04T22:36:59.491Z,19.72
2022-08-04T22:47:58.591Z,19.52
2022-08-04T22:59:00.993Z,19.52
2022-08-04T23:10:01.666Z,19.33
2022-08-04T23:21:02.934Z,19.23
2022-08-04T23:32:00.293Z,19.03
2022-08-04T23:42:58.626Z,18.94
2022-08-04T23:54:01.795Z,18.84
